^^
MeteoGriva-Weather Station Historical Data
Daily Summary for August 14, 2020 Units:  English    Metric   Both
Daily Weekly Monthly Yearly Custom
  High: Low: Average:
Temperature: 51.6 °F 36.9 °F 42.1 °F
Dew Point: 46.6 °F 36.7 °F 41 °F
Humidity: 99% 80.2% 96%
Wind Speed: 0.9mph 0mph 0mph
Wind Gust: 7.6mph - -
Wind- - SE
Pressure: 30.4 in 30.2 in -
Precipitation: 0 in    
Historical Graphs
 
 
Tabular Data for August 14, 2020
Time Temperature Dew Point Pressure Wind Wind Speed Wind Gust Humidity Rainfall Rate (Hourly) solar
00:04 38.8 °F 38.7 °F 30.3 in Calm     99% 0 in 0 W/m2
00:09 38.8 °F 38.7 °F 30.3 in Calm     99% 0 in 0 W/m2
00:14 39.2 °F 39 °F 30.3 in Calm     99% 0 in 0 W/m2
00:19 39.6 °F 39.4 °F 30.3 in Calm     99% 0 in 0 W/m2
00:24 39.6 °F 39.4 °F 30.3 in Calm     99% 0 in 0 W/m2
00:29 39.6 °F 39.4 °F 30.3 in Calm     99% 0 in 0 W/m2
00:34 39.6 °F 39.4 °F 30.3 in Calm     99% 0 in 0 W/m2
00:39 39.7 °F 39.6 °F 30.3 in Calm     99% 0 in 0 W/m2
00:44 39.7 °F 39.6 °F 30.3 in Calm     99% 0 in 0 W/m2
00:49 39.7 °F 39.6 °F 30.3 in Calm     99% 0 in 0 W/m2
00:54 39.7 °F 39.6 °F 30.3 in Calm     99% 0 in 0 W/m2
00:59 39.6 °F 39.6 °F 30.3 in Calm     99% 0 in 0 W/m2
01:04 39.6 °F 39.4 °F 30.3 in Calm     99% 0 in 0 W/m2
01:09 39.6 °F 39.4 °F 30.3 in Calm     99% 0 in 0 W/m2
01:14 39.7 °F 39.6 °F 30.3 in Calm     99% 0 in 0 W/m2
01:19 39.7 °F 39.6 °F 30.3 in Calm     99% 0 in 0 W/m2
01:24 39.7 °F 39.6 °F 30.3 in Calm     99% 0 in 0 W/m2
01:29 39.7 °F 39.6 °F 30.3 in Calm     99% 0 in 0 W/m2
01:34 39.7 °F 39.6 °F 30.3 in Calm     99% 0 in 0 W/m2
01:39 39.9 °F 39.7 °F 30.3 in Calm     99% 0 in 0 W/m2
01:44 39.9 °F 39.7 °F 30.3 in Calm     99% 0 in 0 W/m2
01:49 39.7 °F 39.6 °F 30.3 in Calm     99% 0 in 0 W/m2
01:54 39.7 °F 39.6 °F 30.3 in Calm     99% 0 in 0 W/m2
01:59 39.6 °F 39.4 °F 30.3 in Calm     99% 0 in 0 W/m2
02:04 39.6 °F 39.4 °F 30.3 in Calm     99% 0 in 0 W/m2
02:09 39.4 °F 39.2 °F 30.3 in Calm     99% 0 in 0 W/m2
02:14 39.4 °F 39.2 °F 30.3 in Calm     99% 0 in 0 W/m2
02:19 39.2 °F 39 °F 30.3 in Calm     99% 0 in 0 W/m2
02:24 39.2 °F 39 °F 30.3 in Calm     99% 0 in 0 W/m2
02:29 39.2 °F 39 °F 30.3 in Calm     99% 0 in 0 W/m2
02:34 39.2 °F 39 °F 30.3 in Calm     99% 0 in 0 W/m2
02:39 39.6 °F 39.4 °F 30.3 in Calm     99% 0 in 0 W/m2
02:44 39.4 °F 39.2 °F 30.3 in Calm     99% 0 in 0 W/m2
02:49 39.4 °F 39.2 °F 30.3 in Calm     99% 0 in 0 W/m2
02:54 39.2 °F 39 °F 30.3 in Calm     99% 0 in 0 W/m2
02:59 39 °F 38.8 °F 30.3 in Calm     99% 0 in 0 W/m2
03:04 39 °F 38.8 °F 30.3 in Calm     99% 0 in 0 W/m2
03:09 38.8 °F 38.7 °F 30.3 in Calm     99% 0 in 0 W/m2
03:14 38.8 °F 38.7 °F 30.3 in Calm     99% 0 in 0 W/m2
03:19 39.2 °F 39 °F 30.3 in Calm     99% 0 in 0 W/m2
03:24 39.2 °F 39 °F 30.3 in Calm     99% 0 in 0 W/m2
03:29 39.2 °F 39 °F 30.3 in Calm     99% 0 in 0 W/m2
03:34 39.2 °F 39 °F 30.3 in Calm     99% 0 in 0 W/m2
03:39 39.2 °F 39 °F 30.3 in Calm     99% 0 in 0 W/m2
03:44 39.2 °F 39 °F 30.3 in Calm     99% 0 in 0 W/m2
03:49 39.2 °F 39 °F 30.3 in Calm     99% 0 in 0 W/m2
03:54 39 °F 38.8 °F 30.3 in Calm     99% 0 in 0 W/m2
03:59 38.7 °F 38.5 °F 30.3 in Calm     99% 0 in 0 W/m2
04:04 38.7 °F 38.5 °F 30.3 in Calm     99% 0 in 0 W/m2
04:09 38.7 °F 38.5 °F 30.3 in Calm     99% 0 in 0 W/m2
04:14 38.5 °F 38.3 °F 30.3 in Calm     99% 0 in 0 W/m2
04:19 37.9 °F 37.8 °F 30.3 in Calm     99% 0 in 0 W/m2
04:24 37.8 °F 37.6 °F 30.3 in Calm     99% 0 in 0 W/m2
04:29 37.8 °F 37.6 °F 30.2 in Calm     99% 0 in 0 W/m2
04:34 37.8 °F 37.6 °F 30.3 in Calm     99% 0 in 0 W/m2
04:39 37.6 °F 37.4 °F 30.3 in Calm     99% 0 in 0 W/m2
04:44 37.6 °F 37.4 °F 30.2 in Calm     99% 0 in 0 W/m2
04:49 37.6 °F 37.4 °F 30.2 in Calm     99% 0 in 0 W/m2
04:54 37.6 °F 37.4 °F 30.3 in Calm     99% 0 in 0 W/m2
04:59 37.6 °F 37.4 °F 30.2 in Calm     99% 0 in 0 W/m2
05:04 37.6 °F 37.4 °F 30.3 in Calm     99% 0 in 0 W/m2
05:09 37.6 °F 37.4 °F 30.3 in Calm     99% 0 in 0 W/m2
05:14 37.4 °F 37.2 °F 30.3 in Calm     99% 0 in 0 W/m2
05:19 37 °F 36.7 °F 30.2 in Calm     99% 0 in 0 W/m2
05:24 36.9 °F 36.7 °F 30.2 in Calm     99% 0 in 0 W/m2
05:29 37 °F 36.9 °F 30.2 in Calm     99% 0 in 0 W/m2
05:34 37 °F 36.9 °F 30.2 in Calm     99% 0 in 0 W/m2
05:39 37.4 °F 37.2 °F 30.2 in Calm     99% 0 in 0 W/m2
05:44 37.4 °F 37.2 °F 30.2 in Calm     99% 0 in 0 W/m2
05:49 37.4 °F 37.2 °F 30.2 in Calm     99% 0 in 0 W/m2
05:54 37.6 °F 37.4 °F 30.2 in Calm     99% 0 in 0 W/m2
05:59 38.3 °F 38.1 °F 30.2 in Calm     99% 0 in 0 W/m2
06:04 38.3 °F 38.1 °F 30.2 in Calm     99% 0 in 0 W/m2
06:09 38.3 °F 38.1 °F 30.2 in Calm     99% 0 in 0 W/m2
06:14 38.3 °F 38.1 °F 30.2 in Calm     99% 0 in 0 W/m2
06:19 38.7 °F 38.5 °F 30.3 in Calm     99% 0 in 0 W/m2
06:24 38.8 °F 38.7 °F 30.3 in Calm     99% 0 in 0 W/m2
06:29 38.8 °F 38.7 °F 30.3 in Calm     99% 0 in 0 W/m2
06:34 38.8 °F 38.7 °F 30.3 in Calm     99% 0 in 0 W/m2
06:39 38.7 °F 38.5 °F 30.3 in Calm     99% 0 in 0 W/m2
06:44 38.7 °F 38.5 °F 30.3 in Calm     99% 0 in 0 W/m2
06:49 38.7 °F 38.5 °F 30.3 in Calm     99% 0 in 0 W/m2
06:54 38.8 °F 38.7 °F 30.3 in Calm     99% 0 in 0 W/m2
06:59 39.4 °F 39.2 °F 30.3 in Calm     99% 0 in 0 W/m2
07:04 39.6 °F 39.4 °F 30.3 in Calm     99% 0 in 0 W/m2
07:09 39.7 °F 39.6 °F 30.3 in Calm     99% 0 in 0 W/m2
07:14 39.7 °F 39.6 °F 30.3 in Calm     99% 0 in 0 W/m2
07:19 39.4 °F 39.2 °F 30.3 in Calm     99% 0 in 0 W/m2
07:24 39 °F 38.8 °F 30.3 in Calm     99% 0 in 0 W/m2
07:29 38.8 °F 38.8 °F 30.3 in Calm     99% 0 in 0 W/m2
07:34 38.8 °F 38.7 °F 30.3 in Calm     99% 0 in 0 W/m2
07:39 37.9 °F 37.8 °F 30.3 in Calm     99% 0 in 0 W/m2
07:44 37.6 °F 37.4 °F 30.3 in Calm     99% 0 in 0 W/m2
07:49 37.6 °F 37.4 °F 30.3 in Calm     99% 0 in 0 W/m2
07:54 37.6 °F 37.4 °F 30.3 in Calm     99% 0 in 0 W/m2
07:59 37.4 °F 37.2 °F 30.3 in Calm     99% 0 in 4 W/m2
08:04 37.2 °F 37 °F 30.3 in Calm     99% 0 in 8 W/m2
08:09 37.4 °F 37.2 °F 30.3 in Calm     99% 0 in 14 W/m2
08:14 37.6 °F 37.4 °F 30.3 in Calm     99% 0 in 22 W/m2
08:19 38.5 °F 38.3 °F 30.3 in Calm     99% 0 in 29 W/m2
08:24 39.2 °F 39 °F 30.3 in Calm     99% 0 in 35 W/m2
08:29 39.2 °F 39 °F 30.3 in Calm     99% 0 in 41 W/m2
08:34 39.6 °F 39.4 °F 30.3 in Calm     99% 0 in 47 W/m2
08:39 40.3 °F 40.1 °F 30.3 in Calm     99% 0 in 53 W/m2
08:44 40.6 °F 40.5 °F 30.3 in Calm     99% 0 in 57 W/m2
08:49 40.5 °F 40.5 °F 30.3 in Calm     99% 0 in 60 W/m2
08:54 40.5 °F 40.3 °F 30.3 in Calm     99% 0 in 64 W/m2
08:59 40.5 °F 40.3 °F 30.3 in Calm     99% 0 in 64 W/m2
09:04 40.5 °F 40.3 °F 30.3 in Calm     99% 0 in 63 W/m2
09:09 40.5 °F 40.3 °F 30.3 in Calm     99% 0 in 69 W/m2
09:14 40.6 °F 40.5 °F 30.3 in Calm     99% 0 in 71 W/m2
09:19 41.7 °F 41.4 °F 30.3 in Calm     99% 0 in 72 W/m2
09:24 42.1 °F 41.9 °F 30.3 in Calm     99% 0 in 71 W/m2
09:29 42.1 °F 41.9 °F 30.3 in Calm     99% 0 in 65 W/m2
09:34 41.9 °F 41.7 °F 30.3 in Calm     99% 0 in 64 W/m2
09:39 41.5 °F 41.4 °F 30.3 in Calm     99% 0 in 60 W/m2
09:44 41 °F 40.8 °F 30.3 in Calm     99% 0 in 62 W/m2
09:49 40.8 °F 40.6 °F 30.3 in Calm     99% 0 in 68 W/m2
09:54 40.6 °F 40.5 °F 30.3 in Calm     99% 0 in 73 W/m2
09:59 40.8 °F 40.6 °F 30.3 in Calm     99% 0 in 81 W/m2
10:04 41.2 °F 41 °F 30.3 in Calm     99% 0 in 83 W/m2
10:09 41.4 °F 41.2 °F 30.3 in Calm     99% 0 in 85 W/m2
10:14 41.7 °F 41.2 °F 30.3 in Calm     97.2% 0 in 87 W/m2
10:19 44.2 °F 42.1 °F 30.3 in Calm     92.2% 0 in 89 W/m2
10:24 47.8 °F 45.3 °F 30.3 in Calm     91.1% 0 in 90 W/m2
10:29 47.8 °F 45.5 °F 30.3 in Calm     91.3% 0 in 90 W/m2
10:34 48 °F 45 °F 30.3 in Calm     89.6% 0 in 91 W/m2
10:39 47.7 °F 45.3 °F 30.3 in Calm     91.3% 0 in 91 W/m2
10:44 47.1 °F 45.1 °F 30.3 in Calm     92.9% 0 in 92 W/m2
10:49 46.9 °F 45.7 °F 30.3 in Calm     95% 0 in 92 W/m2
10:54 46.8 °F 45 °F 30.3 in Calm     93.2% 0 in 93 W/m2
10:59 47.1 °F 45.1 °F 30.3 in Calm     92.8% 0 in 95 W/m2
11:04 47.7 °F 45.3 °F 30.3 in Calm     91.3% 0 in 97 W/m2
11:09 47.7 °F 45.1 °F 30.3 in Calm     91% 0 in 99 W/m2
11:14 47.7 °F 45.3 °F 30.3 in Calm     91.6% 0 in 102 W/m2
11:19 47.5 °F 45.1 °F 30.3 in Calm   2.5 mph 92.1% 0 in 105 W/m2
11:24 46.8 °F 45.5 °F 30.3 in ENE 0.3 mph 4.9 mph 95.3% 0 in 108 W/m2
11:29 46.4 °F 45.1 °F 30.3 in Calm   2.5 mph 95.7% 0 in 111 W/m2
11:34 46 °F 44.2 °F 30.3 in NE 0.1 mph 2.5 mph 93.4% 0 in 113 W/m2
11:39 45.7 °F 43.9 °F 30.3 in Calm     93.8% 0 in 117 W/m2
11:44 45.3 °F 43.5 °F 30.3 in Calm     93.6% 0 in 121 W/m2
11:49 45.5 °F 43.5 °F 30.3 in NNE 0.1 mph 2.5 mph 93.3% 0 in 122 W/m2
11:54 45.5 °F 44.1 °F 30.3 in Calm   2.5 mph 94.4% 0 in 104 W/m2
11:59 45.1 °F 44.2 °F 30.3 in NE 0.7 mph 4.9 mph 96.4% 0 in 92 W/m2
12:04 44.1 °F 43 °F 30.3 in Calm   4.9 mph 95.9% 0 in 90 W/m2
12:09 44.2 °F 42.6 °F 30.3 in Calm     93.5% 0 in 90 W/m2
12:14 44.6 °F 42.8 °F 30.3 in Calm   2.5 mph 93.3% 0 in 90 W/m2
12:19 45.5 °F 43 °F 30.3 in Calm     91.2% 0 in 121 W/m2
12:24 46.9 °F 44.4 °F 30.3 in ENE 0.1 mph 2.5 mph 91% 0 in 158 W/m2
12:29 46.8 °F 44.2 °F 30.3 in Calm     90.9% 0 in 170 W/m2
12:34 46.8 °F 43.7 °F 30.3 in Calm     88.8% 0 in 180 W/m2
12:39 46.9 °F 43.7 °F 30.3 in Calm     88.1% 0 in 187 W/m2
12:44 47.3 °F 44.1 °F 30.3 in ENE 0.2 mph 2.5 mph 88.8% 0 in 198 W/m2
12:49 47.3 °F 43.9 °F 30.3 in Calm     87.9% 0 in 213 W/m2
12:54 47.5 °F 44.1 °F 30.3 in Calm     87.9% 0 in 225 W/m2
12:59 47.7 °F 44.2 °F 30.3 in East 0.4 mph 4.9 mph 87.9% 0 in 235 W/m2
13:04 48.6 °F 44.8 °F 30.3 in ESE 0.1 mph 2.5 mph 86.7% 0 in 248 W/m2
13:09 48.4 °F 44.8 °F 30.3 in South 0.2 mph 2.5 mph 87% 0 in 259 W/m2
13:14 48.6 °F 44.6 °F 30.3 in SSE 0.9 mph 7.6 mph 86.4% 0 in 270 W/m2
13:19 48.6 °F 44.8 °F 30.3 in ESE 0.4 mph 4.9 mph 86.8% 0 in 279 W/m2
13:24 48.6 °F 44.8 °F 30.3 in SE 0.1 mph 4.9 mph 87.2% 0 in 286 W/m2
13:29 48.6 °F 44.4 °F 30.3 in Calm   2.5 mph 85.7% 0 in 294 W/m2
13:34 48.6 °F 44.8 °F 30.3 in Calm   4.9 mph 87.2% 0 in 299 W/m2
13:39 48.4 °F 45 °F 30.3 in East 0.6 mph 4.9 mph 87.9% 0 in 306 W/m2
13:44 47.7 °F 44.1 °F 30.3 in Calm     87.4% 0 in 312 W/m2
13:49 47.7 °F 43.9 °F 30.3 in Calm     86.4% 0 in 316 W/m2
13:54 48 °F 43.7 °F 30.3 in Calm   7.6 mph 84.9% 0 in 320 W/m2
13:59 48.4 °F 43.5 °F 30.3 in SSE 0.6 mph 7.6 mph 83.6% 0 in 322 W/m2
14:04 49.8 °F 45 °F 30.2 in Calm   4.9 mph 83.4% 0 in 323 W/m2
14:09 49.8 °F 44.8 °F 30.2 in Calm     83.1% 0 in 325 W/m2
14:14 49.8 °F 45.3 °F 30.2 in Calm     84.4% 0 in 324 W/m2
14:19 49.8 °F 45 °F 30.2 in Calm     83.4% 0 in 322 W/m2
14:24 49.6 °F 44.8 °F 30.2 in Calm     83.4% 0 in 319 W/m2
14:29 49.8 °F 44.6 °F 30.2 in Calm   4.9 mph 82.6% 0 in 318 W/m2
14:34 49.8 °F 44.8 °F 30.2 in Calm     82.7% 0 in 318 W/m2
14:39 50 °F 45.1 °F 30.2 in SE 0.1 mph 2.5 mph 83.4% 0 in 312 W/m2
14:44 51.1 °F 45.9 °F 30.2 in SSE 0.2 mph 4.9 mph 82% 0 in 309 W/m2
14:49 51.1 °F 45.7 °F 30.2 in SE 0.1 mph 2.5 mph 81.6% 0 in 305 W/m2
14:54 50.9 °F 45.9 °F 30.2 in Calm   2.5 mph 82.6% 0 in 291 W/m2
14:59 50.9 °F 45.7 °F 30.2 in Calm   2.5 mph 82% 0 in 286 W/m2
15:04 51.4 °F 45.9 °F 30.2 in Calm   2.5 mph 80.7% 0 in 285 W/m2
15:09 51.6 °F 45.7 °F 30.2 in Calm   4.9 mph 80.2% 0 in 273 W/m2
15:14 51.6 °F 46 °F 30.2 in South 0.7 mph 4.9 mph 81.6% 0 in 251 W/m2
15:19 51.4 °F 46.6 °F 30.2 in Calm     83.6% 0 in 224 W/m2
15:24 49.8 °F 45.1 °F 30.2 in Calm   2.5 mph 84.4% 0 in 229 W/m2
15:29 49.6 °F 45 °F 30.2 in Calm     83.5% 0 in 233 W/m2
15:34 49.6 °F 45 °F 30.2 in SSE 0.2 mph 4.9 mph 83.8% 0 in 231 W/m2
15:39 49.8 °F 45 °F 30.2 in South 0.2 mph 4.9 mph 83.7% 0 in 207 W/m2
15:44 49.6 °F 45.1 °F 30.2 in SE 0.1 mph 4.9 mph 84.4% 0 in 200 W/m2
15:49 49.8 °F 45.3 °F 30.2 in SE 0.5 mph 4.9 mph 84.4% 0 in 190 W/m2
15:54 49.8 °F 45.5 °F 30.2 in South 0.1 mph 2.5 mph 85.1% 0 in 181 W/m2
15:59 49.6 °F 45.9 °F 30.2 in SSE 0.4 mph 7.6 mph 86.4% 0 in 143 W/m2
16:04 48.6 °F 45.3 °F 30.2 in SSE 0.2 mph 7.6 mph 88.6% 0 in 54 W/m2
16:09 48.2 °F 45.3 °F 30.2 in SSE 0.4 mph 2.5 mph 90% 0 in 51 W/m2
16:14 48.2 °F 46 °F 30.2 in South 0.1 mph 4.9 mph 92.7% 0 in 48 W/m2
16:19 48 °F 46.4 °F 30.3 in Calm     94.3% 0 in 45 W/m2
16:24 47.1 °F 46 °F 30.3 in Calm     95.7% 0 in 41 W/m2
16:29 46.8 °F 46 °F 30.2 in Calm     96.9% 0 in 36 W/m2
16:34 46.8 °F 46 °F 30.3 in Calm     98% 0 in 33 W/m2
16:39 46.4 °F 46.2 °F 30.3 in Calm     99% 0 in 29 W/m2
16:44 45.3 °F 45.1 °F 30.3 in Calm     99% 0 in 26 W/m2
16:49 45 °F 44.8 °F 30.3 in Calm     99% 0 in 23 W/m2
16:54 45 °F 44.8 °F 30.3 in Calm     99% 0 in 21 W/m2
16:59 44.8 °F 44.6 °F 30.3 in Calm     99% 0 in 18 W/m2
17:04 43.7 °F 43.7 °F 30.3 in Calm     99% 0 in 13 W/m2
17:09 43.3 °F 43.2 °F 30.3 in Calm     99% 0 in 10 W/m2
17:14 43.3 °F 43.2 °F 30.3 in Calm     99% 0 in 7 W/m2
17:19 43.2 °F 43 °F 30.3 in Calm     99% 0 in 4 W/m2
17:24 42.4 °F 42.3 °F 30.3 in Calm     99% 0 in 2 W/m2
17:29 42.1 °F 41.9 °F 30.3 in Calm     99% 0 in 0 W/m2
17:34 42.1 °F 41.9 °F 30.3 in Calm     99% 0 in 0 W/m2
17:39 41.9 °F 41.7 °F 30.3 in Calm     99% 0 in 0 W/m2
17:44 41.2 °F 41 °F 30.3 in Calm     99% 0 in 0 W/m2
17:49 41 °F 40.8 °F 30.3 in Calm     99% 0 in 0 W/m2
17:54 41 °F 40.8 °F 30.3 in Calm     99% 0 in 0 W/m2
17:59 40.8 °F 40.6 °F 30.3 in Calm     99% 0 in 0 W/m2
18:04 41 °F 40.6 °F 30.3 in Calm     99% 0 in 0 W/m2
18:09 40.8 °F 40.6 °F 30.3 in Calm     99% 0 in 0 W/m2
18:14 41 °F 40.8 °F 30.3 in Calm     99% 0 in 0 W/m2
18:19 41 °F 40.8 °F 30.3 in Calm     99% 0 in 0 W/m2
18:24 40.8 °F 40.6 °F 30.3 in Calm     99% 0 in 0 W/m2
18:29 40.6 °F 40.5 °F 30.3 in Calm     99% 0 in 0 W/m2
18:34 40.6 °F 40.5 °F 30.3 in Calm     99% 0 in 0 W/m2
18:39 40.6 °F 40.5 °F 30.3 in Calm     99% 0 in 0 W/m2
18:44 40.6 °F 40.6 °F 30.3 in Calm     99% 0 in 0 W/m2
18:49 40.6 °F 40.6 °F 30.3 in Calm     99% 0 in 0 W/m2
18:54 40.6 °F 40.5 °F 30.3 in Calm     99% 0 in 0 W/m2
18:59 40.6 °F 40.5 °F 30.3 in Calm     99% 0 in 0 W/m2
19:04 40.5 °F 40.3 °F 30.3 in Calm     99% 0 in 0 W/m2
19:09 40.5 °F 40.3 °F 30.3 in Calm     99% 0 in 0 W/m2
19:14 40.5 °F 40.3 °F 30.3 in Calm     99% 0 in 0 W/m2
19:19 40.5 °F 40.3 °F 30.3 in Calm     99% 0 in 0 W/m2
19:24 40.6 °F 40.5 °F 30.3 in Calm     99% 0 in 0 W/m2
19:29 40.5 °F 40.3 °F 30.3 in Calm     99% 0 in 0 W/m2
19:34 40.5 °F 40.3 °F 30.3 in Calm     99% 0 in 0 W/m2
19:39 40.5 °F 40.3 °F 30.3 in Calm     99% 0 in 0 W/m2
19:44 40.5 °F 40.3 °F 30.3 in Calm     99% 0 in 0 W/m2
19:49 40.5 °F 40.3 °F 30.3 in Calm     99% 0 in 0 W/m2
19:54 40.5 °F 40.3 °F 30.3 in Calm     99% 0 in 0 W/m2
19:59 40.5 °F 40.3 °F 30.3 in Calm     99% 0 in 0 W/m2
20:04 40.5 °F 40.3 °F 30.3 in Calm     99% 0 in 0 W/m2
20:09 40.3 °F 40.1 °F 30.3 in Calm     99% 0 in 0 W/m2
20:14 40.3 °F 40.1 °F 30.3 in Calm     99% 0 in 0 W/m2
20:19 40.5 °F 40.3 °F 30.3 in Calm     99% 0 in 0 W/m2
20:24 40.5 °F 40.5 °F 30.3 in Calm     99% 0 in 0 W/m2
20:29 40.5 °F 40.5 °F 30.3 in Calm     99% 0 in 0 W/m2
20:34 40.5 °F 40.3 °F 30.3 in Calm     99% 0 in 0 W/m2
20:39 40.5 °F 40.3 °F 30.3 in Calm     99% 0 in 0 W/m2
20:44 40.5 °F 40.3 °F 30.3 in Calm     99% 0 in 0 W/m2
20:49 40.5 °F 40.3 °F 30.3 in Calm     99% 0 in 0 W/m2
20:54 40.5 °F 39.9 °F 30.3 in Calm     98.1% 0 in 0 W/m2
20:59 40.6 °F 40.1 °F 30.3 in Calm     97.7% 0 in 0 W/m2
21:04 41 °F 40.3 °F 30.3 in Calm     97.7% 0 in 0 W/m2
21:09 41 °F 40.6 °F 30.3 in Calm     98.4% 0 in 0 W/m2
21:14 41 °F 40.8 °F 30.3 in Calm     99% 0 in 0 W/m2
21:19 41 °F 40.8 °F 30.3 in Calm     99% 0 in 0 W/m2
21:24 41 °F 40.8 °F 30.3 in Calm     99% 0 in 0 W/m2
21:29 40.6 °F 40.5 °F 30.3 in Calm     99% 0 in 0 W/m2
21:34 40.6 °F 40.5 °F 30.4 in Calm     99% 0 in 0 W/m2
21:39 40.6 °F 40.5 °F 30.3 in Calm     99% 0 in 0 W/m2
21:44 40.5 °F 40.3 °F 30.3 in Calm     99% 0 in 0 W/m2
21:49 40.5 °F 40.3 °F 30.3 in Calm     99% 0 in 0 W/m2
21:54 40.5 °F 40.3 °F 30.4 in Calm     99% 0 in 0 W/m2
21:59 40.5 °F 40.1 °F 30.3 in Calm     98.6% 0 in 0 W/m2
22:04 40.6 °F 40.1 °F 30.3 in Calm     98.1% 0 in 0 W/m2
22:09 40.6 °F 40.5 °F 30.4 in Calm     99% 0 in 0 W/m2
22:14 40.6 °F 40.5 °F 30.3 in Calm     99% 0 in 0 W/m2
22:19 40.6 °F 40.5 °F 30.3 in Calm     99% 0 in 0 W/m2
22:24 40.8 °F 40.6 °F 30.3 in Calm     98.9% 0 in 0 W/m2
22:29 41.2 °F 40.8 °F 30.3 in Calm     98.3% 0 in 0 W/m2
22:34 41.2 °F 41 °F 30.3 in Calm     99% 0 in 0 W/m2
22:39 41 °F 40.8 °F 30.3 in Calm     99% 0 in 0 W/m2
22:44 40.8 °F 40.6 °F 30.3 in Calm     99% 0 in 0 W/m2
22:49 39.7 °F 39.7 °F 30.4 in Calm     99% 0 in 0 W/m2
22:54 39.7 °F 39.6 °F 30.3 in Calm     99% 0 in 0 W/m2
22:59 39.7 °F 39.6 °F 30.3 in Calm     99% 0 in 0 W/m2
23:04 39.7 °F 39.6 °F 30.3 in Calm     99% 0 in 0 W/m2
23:09 39.7 °F 39.6 °F 30.3 in Calm     99% 0 in 0 W/m2
23:14 39.9 °F 39.7 °F 30.3 in Calm     99% 0 in 0 W/m2
23:19 39.9 °F 39.7 °F 30.3 in Calm     99% 0 in 0 W/m2
23:24 39.9 °F 39.7 °F 30.3 in Calm     99% 0 in 0 W/m2
23:29 39.9 °F 39.7 °F 30.3 in Calm     99% 0 in 0 W/m2
23:34 39.9 °F 39.7 °F 30.3 in Calm     99% 0 in 0 W/m2
23:39 39.7 °F 39.7 °F 30.3 in Calm     99% 0 in 0 W/m2
23:44 39.7 °F 39.6 °F 30.3 in Calm     99% 0 in 0 W/m2
23:49 39.7 °F 39.6 °F 30.4 in Calm     99% 0 in 0 W/m2
23:54 39.7 °F 39.6 °F 30.3 in Calm     99% 0 in 0 W/m2
23:59 39.7 °F 39.6 °F 30.3 in Calm     99% 0 in 0 W/m2
Juneau County Weather
Compliments of Weather Underground - 2 mb